Time;durP1;ratioP1;P1;durP2;ratioP2;P2;SDS_P1;SDS_P2;PMS_P1;PMS_P2;Temp;Humidity;BMP_temperature;BMP_pressure;BME280_temperature;BME280_humidity;BME280_pressure;Samples;Min_cycle;Max_cycle;Signal;HPM_P1;HPM_P2
2023/05/03 00:00:07;;;;;;;15.55;12.45;;;17.30;96.10;;;;;;4990849;28;20531;-75
2023/05/03 00:02:38;;;;;;;15.73;14.02;;;17.30;96.20;;;;;;4990979;28;20437;-75
2023/05/03 00:05:08;;;;;;;15.52;12.98;;;17.30;96.20;;;;;;4991347;28;20053;-75
2023/05/03 00:07:34;;;;;;;17.23;13.80;;;17.20;96.20;;;;;;4989530;28;20057;-75
2023/05/03 00:10:00;;;;;;;16.52;13.75;;;17.20;96.30;;;;;;4990616;28;20050;-75
2023/05/03 00:12:25;;;;;;;16.80;13.70;;;17.20;96.30;;;;;;4991563;28;20464;-75
2023/05/03 00:14:51;;;;;;;16.35;13.38;;;17.20;96.40;;;;;;4991305;28;20052;-75
2023/05/03 00:17:17;;;;;;;14.40;12.90;;;17.10;96.40;;;;;;4990190;28;20122;-75
2023/05/03 00:19:42;;;;;;;17.55;12.85;;;17.10;96.50;;;;;;4990087;28;20033;-75
2023/05/03 00:22:08;;;;;;;15.02;13.32;;;17.10;96.50;;;;;;4974072;28;20153;-75
2023/05/03 00:24:34;;;;;;;15.15;12.13;;;17.10;96.60;;;;;;4991712;28;20035;-74
2023/05/03 00:27:00;;;;;;;14.50;12.43;;;17.10;96.70;;;;;;4989601;28;20121;-75
2023/05/03 00:29:26;;;;;;;17.25;13.48;;;17.20;96.70;;;;;;4989205;28;20133;-75
2023/05/03 00:31:52;;;;;;;16.33;13.00;;;17.20;96.80;;;;;;4990223;28;20054;-75
2023/05/03 00:34:17;;;;;;;16.20;13.30;;;17.20;96.80;;;;;;4990760;28;20503;-74
2023/05/03 00:36:43;;;;;;;18.88;13.55;;;17.30;96.90;;;;;;4989445;28;20404;-74
2023/05/03 00:39:08;;;;;;;15.75;13.05;;;17.30;96.90;;;;;;4989542;28;20112;-75
2023/05/03 00:41:34;;;;;;;18.92;13.50;;;17.30;96.80;;;;;;4991390;28;20034;-74
2023/05/03 00:44:00;;;;;;;19.77;14.48;;;17.30;96.90;;;;;;4991207;28;20043;-73
2023/05/03 00:46:26;;;;;;;19.15;14.88;;;17.30;96.80;;;;;;4989455;28;20027;-75
2023/05/03 00:48:52;;;;;;;17.48;14.38;;;17.40;96.90;;;;;;4989449;28;20034;-74
2023/05/03 00:51:19;;;;;;;17.88;15.90;;;17.40;96.80;;;;;;4991171;28;20050;-77
2023/05/03 00:53:45;;;;;;;17.83;15.25;;;17.40;96.80;;;;;;4991688;28;20026;-76
2023/05/03 00:56:12;;;;;;;17.40;15.55;;;17.40;96.70;;;;;;4990408;28;20042;-75
2023/05/03 00:58:39;;;;;;;19.13;14.68;;;17.30;96.70;;;;;;4989403;28;20026;-73
2023/05/03 01:01:07;;;;;;;17.70;15.75;;;17.30;96.80;;;;;;4989756;28;20407;-75
2023/05/03 01:03:36;;;;;;;19.20;15.70;;;17.30;96.80;;;;;;4990240;28;20031;-76
2023/05/03 01:06:30;;;;;;;19.15;15.25;;;17.30;96.90;;;;;;4990793;28;20046;-76
2023/05/03 01:09:11;;;;;;;16.83;14.82;;;17.30;97.00;;;;;;4989421;28;20042;-75
2023/05/03 01:12:06;;;;;;;19.70;15.82;;;17.30;97.00;;;;;;4991019;28;20492;-75
2023/05/03 01:14:45;;;;;;;20.02;16.98;;;17.30;96.90;;;;;;4964769;28;20484;-73
2023/05/03 01:17:12;;;;;;;20.25;16.10;;;17.30;96.90;;;;;;4990039;28;20082;-74
2023/05/03 01:19:49;;;;;;;18.90;15.60;;;17.30;96.90;;;;;;4953980;28;20031;-74
2023/05/03 01:22:28;;;;;;;19.23;16.25;;;17.30;96.90;;;;;;4985399;28;20040;-75
2023/05/03 01:25:20;;;;;;;18.60;16.50;;;17.40;97.00;;;;;;4991518;28;20027;-77
2023/05/03 01:27:46;;;;;;;20.42;17.27;;;17.40;96.70;;;;;;4985930;28;20480;-77
2023/05/03 01:30:12;;;;;;;18.52;15.55;;;17.40;96.80;;;;;;4993473;28;20165;-76
2023/05/03 01:32:57;;;;;;;18.88;16.63;;;17.40;96.80;;;;;;4990016;28;20045;-75
2023/05/03 01:35:28;;;;;;;18.25;15.98;;;17.40;96.90;;;;;;4989925;28;20488;-73
2023/05/03 01:37:56;;;;;;;18.85;16.23;;;17.40;96.90;;;;;;4988681;28;20077;-74
2023/05/03 01:40:24;;;;;;;20.95;17.08;;;17.30;96.80;;;;;;4997595;28;20054;-74
2023/05/03 01:42:51;;;;;;;21.65;17.20;;;17.30;96.90;;;;;;5010501;28;20105;-75
2023/05/03 01:45:17;;;;;;;19.38;17.02;;;17.30;97.00;;;;;;5010784;28;20034;-75
2023/05/03 01:47:43;;;;;;;18.40;16.48;;;17.20;97.10;;;;;;5009359;28;20406;-75
2023/05/03 01:50:09;;;;;;;20.40;17.30;;;17.20;97.10;;;;;;5005458;28;20054;-75
2023/05/03 01:52:35;;;;;;;19.08;16.98;;;17.20;97.20;;;;;;4994084;28;20018;-74
2023/05/03 01:55:00;;;;;;;19.77;17.33;;;17.20;97.20;;;;;;4994076;28;20049;-73
2023/05/03 01:57:26;;;;;;;20.77;16.75;;;17.10;97.30;;;;;;5002004;28;20110;-75
2023/05/03 01:59:52;;;;;;;20.75;17.48;;;17.10;97.30;;;;;;5012495;28;20121;-74
2023/05/03 02:02:17;;;;;;;21.73;17.85;;;17.10;97.40;;;;;;5011115;28;20508;-75
2023/05/03 02:04:43;;;;;;;19.83;17.67;;;17.10;97.50;;;;;;5013042;28;20049;-73
2023/05/03 02:07:09;;;;;;;21.40;17.35;;;17.00;97.40;;;;;;5012071;28;20117;-74
2023/05/03 02:09:34;;;;;;;19.67;17.50;;;17.00;97.50;;;;;;4991814;28;20117;-74
2023/05/03 02:12:00;;;;;;;21.25;17.33;;;17.00;97.50;;;;;;4994252;28;20034;-74
2023/05/03 02:14:26;;;;;;;19.30;17.25;;;17.00;97.60;;;;;;4993980;28;20492;-74
2023/05/03 02:16:54;;;;;;;21.77;18.17;;;17.00;97.70;;;;;;4997808;28;20128;-74
2023/05/03 02:19:20;;;;;;;20.15;17.08;;;17.00;97.70;;;;;;5011449;28;20096;-74
2023/05/03 02:21:46;;;;;;;19.25;17.25;;;17.00;97.70;;;;;;5013047;28;20030;-75
2023/05/03 02:24:11;;;;;;;20.33;17.38;;;17.00;97.70;;;;;;5013617;28;20040;-74
2023/05/03 02:26:37;;;;;;;26.80;20.30;;;17.00;97.60;;;;;;5009783;28;20095;-74
2023/05/03 02:29:03;;;;;;;22.55;19.20;;;17.00;97.60;;;;;;5001062;28;20054;-76
2023/05/03 02:31:28;;;;;;;28.08;20.23;;;17.10;97.60;;;;;;5012831;28;20046;-75
2023/05/03 02:33:54;;;;;;;24.50;20.30;;;17.10;97.60;;;;;;5009056;28;20030;-76
2023/05/03 02:36:20;;;;;;;27.80;20.52;;;17.10;97.50;;;;;;4991926;28;20034;-74
2023/05/03 02:38:46;;;;;;;27.35;20.52;;;17.20;97.60;;;;;;5012482;28;20065;-74
2023/05/03 02:41:12;;;;;;;24.00;17.73;;;17.20;97.60;;;;;;5014738;28;20031;-75
2023/05/03 02:43:37;;;;;;;23.75;18.63;;;17.20;97.60;;;;;;5013078;28;20034;-75
2023/05/03 02:46:04;;;;;;;20.13;16.88;;;17.20;97.60;;;;;;5010545;28;20069;-73
2023/05/03 02:48:30;;;;;;;19.27;15.57;;;17.20;97.50;;;;;;4990974;28;20030;-74
2023/05/03 02:50:56;;;;;;;16.73;14.93;;;17.20;97.40;;;;;;4997677;28;20049;-75
2023/05/03 02:53:21;;;;;;;17.02;13.70;;;17.20;97.30;;;;;;5012997;28;20030;-75
2023/05/03 02:55:48;;;;;;;16.75;13.50;;;17.20;97.30;;;;;;5012908;28;20061;-76
2023/05/03 02:58:14;;;;;;;15.65;12.48;;;17.20;97.20;;;;;;5007366;28;20385;-75
2023/05/03 03:00:40;;;;;;;14.43;12.10;;;17.10;97.30;;;;;;5006869;28;20121;-75
2023/05/03 03:03:05;;;;;;;16.08;12.60;;;17.00;97.10;;;;;;4998530;28;20030;-74
2023/05/03 03:05:32;;;;;;;15.10;10.73;;;17.00;97.40;;;;;;5005372;28;20034;-74
2023/05/03 03:07:57;;;;;;;14.82;10.00;;;16.90;97.10;;;;;;5002850;28;20030;-74
2023/05/03 03:10:23;;;;;;;13.02;8.73;;;16.80;97.30;;;;;;4991571;28;20411;-75
2023/05/03 03:12:49;;;;;;;10.90;8.18;;;16.80;96.90;;;;;;5008656;28;20450;-75
2023/05/03 03:15:14;;;;;;;9.35;7.68;;;16.70;96.80;;;;;;5013253;28;20037;-74
2023/05/03 03:17:40;;;;;;;9.50;7.75;;;16.70;96.80;;;;;;5007674;28;20042;-74
2023/05/03 03:20:10;;;;;;;9.13;7.15;;;16.60;96.70;;;;;;4998215;28;20073;-75
2023/05/03 03:22:37;;;;;;;9.20;5.85;;;16.60;96.80;;;;;;5003978;28;20125;-75
2023/05/03 03:25:04;;;;;;;9.80;5.88;;;16.60;96.60;;;;;;4992957;28;20070;-74
2023/05/03 03:27:30;;;;;;;8.80;5.93;;;16.60;96.60;;;;;;4991692;28;20030;-74
2023/05/03 03:29:55;;;;;;;9.98;5.85;;;16.50;96.50;;;;;;4991144;28;20490;-75
2023/05/03 03:32:21;;;;;;;9.00;5.38;;;16.50;96.40;;;;;;4990834;28;20081;-74
2023/05/03 03:34:47;;;;;;;8.65;5.57;;;16.50;96.20;;;;;;4994522;28;20133;-75
2023/05/03 03:37:13;;;;;;;9.15;5.70;;;16.50;96.10;;;;;;4990156;28;20037;-73
2023/05/03 03:39:39;;;;;;;9.77;5.88;;;16.50;95.90;;;;;;4990809;28;20038;-74
2023/05/03 03:42:09;;;;;;;11.25;7.13;;;16.40;95.90;;;;;;4992446;28;20058;-75
2023/05/03 03:44:35;;;;;;;11.90;8.10;;;16.50;96.10;;;;;;4991881;28;20038;-75
2023/05/03 03:47:00;;;;;;;13.55;9.15;;;16.50;95.90;;;;;;5007016;28;20064;-75
2023/05/03 03:49:26;;;;;;;12.27;8.77;;;16.40;95.80;;;;;;5010066;28;20056;-75
2023/05/03 03:51:52;;;;;;;12.30;8.90;;;16.40;95.90;;;;;;5011483;28;20434;-74
2023/05/03 03:54:17;;;;;;;10.82;9.40;;;16.40;95.90;;;;;;5011931;28;20504;-74
2023/05/03 03:56:43;;;;;;;13.38;10.50;;;16.30;95.90;;;;;;5010807;28;20045;-74
2023/05/03 03:59:09;;;;;;;12.48;9.98;;;16.40;96.00;;;;;;4998336;28;20121;-74
2023/05/03 04:01:34;;;;;;;14.43;9.88;;;16.30;96.00;;;;;;4991474;28;20038;-75
2023/05/03 04:04:00;;;;;;;17.77;10.38;;;16.40;96.10;;;;;;4991401;28;20029;-74
2023/05/03 04:06:26;;;;;;;14.60;10.45;;;16.40;96.10;;;;;;4992203;28;20045;-74
2023/05/03 04:08:51;;;;;;;15.35;10.65;;;16.30;96.00;;;;;;5009449;28;20042;-73
2023/05/03 04:11:17;;;;;;;22.65;12.00;;;16.30;96.10;;;;;;5010747;28;20163;-76
2023/05/03 04:13:43;;;;;;;15.32;10.52;;;16.30;96.10;;;;;;5001167;28;20519;-74
2023/05/03 04:16:09;;;;;;;15.75;11.48;;;16.40;96.10;;;;;;4991781;28;20093;-74
2023/05/03 04:18:34;;;;;;;18.38;12.07;;;16.40;96.10;;;;;;5007567;28;20033;-75
2023/05/03 04:21:00;;;;;;;25.08;13.85;;;16.40;96.00;;;;;;5009482;28;20062;-73
2023/05/03 04:23:26;;;;;;;19.70;13.20;;;16.30;96.00;;;;;;5011594;28;20076;-74
2023/05/03 04:25:52;;;;;;;21.55;14.75;;;16.40;96.20;;;;;;5007173;28;20034;-75
2023/05/03 04:28:18;;;;;;;21.42;15.02;;;16.30;96.20;;;;;;4988144;28;20039;-76
2023/05/03 04:30:46;;;;;;;21.58;14.30;;;16.30;96.30;;;;;;5005327;28;20045;-75
2023/05/03 04:33:12;;;;;;;22.50;14.68;;;16.20;96.40;;;;;;5009759;28;20165;-74
2023/05/03 04:35:38;;;;;;;22.35;14.65;;;16.30;96.50;;;;;;5010517;28;20042;-75
2023/05/03 04:38:04;;;;;;;22.92;16.10;;;16.30;96.40;;;;;;4994899;28;20026;-74
2023/05/03 04:40:30;;;;;;;19.42;15.40;;;16.20;96.50;;;;;;4988817;28;20034;-75
2023/05/03 04:42:56;;;;;;;25.55;17.98;;;16.30;96.60;;;;;;4991353;28;20044;-75
2023/05/03 04:45:22;;;;;;;24.33;16.85;;;16.20;96.60;;;;;;4991671;28;20039;-75
2023/05/03 04:47:48;;;;;;;23.23;16.67;;;16.30;96.80;;;;;;4992863;28;20037;-76
2023/05/03 04:50:14;;;;;;;20.58;16.52;;;16.30;96.80;;;;;;5010478;28;20193;-74
2023/05/03 04:52:40;;;;;;;20.63;14.98;;;16.30;96.80;;;;;;4998542;28;20077;-75
2023/05/03 04:55:06;;;;;;;21.40;15.68;;;16.30;96.80;;;;;;4996182;28;20399;-74
2023/05/03 04:57:32;;;;;;;23.02;16.48;;;16.30;96.80;;;;;;5006722;28;20031;-74
2023/05/03 04:59:58;;;;;;;21.92;16.25;;;16.30;96.80;;;;;;4988698;28;20523;-74
2023/05/03 05:02:25;;;;;;;21.88;15.35;;;16.30;96.80;;;;;;4991854;28;20116;-76
2023/05/03 05:04:50;;;;;;;22.10;16.30;;;16.30;96.90;;;;;;4994432;28;20042;-76
2023/05/03 05:07:16;;;;;;;22.90;15.02;;;16.30;96.90;;;;;;4993828;28;20456;-76
2023/05/03 05:09:42;;;;;;;21.95;15.05;;;16.30;97.00;;;;;;4993376;28;20109;-77
2023/05/03 05:12:08;;;;;;;20.23;14.10;;;16.40;96.90;;;;;;4992621;28;20404;-73
2023/05/03 05:14:34;;;;;;;19.83;14.68;;;16.40;96.90;;;;;;4992595;28;20519;-76
2023/05/03 05:16:59;;;;;;;20.88;14.30;;;16.50;96.90;;;;;;4993248;28;20038;-76
2023/05/03 05:19:25;;;;;;;18.95;15.27;;;16.50;96.70;;;;;;4992637;28;20575;-75
2023/05/03 05:21:51;;;;;;;22.02;15.45;;;16.50;96.70;;;;;;4994220;28;20041;-76
2023/05/03 05:24:17;;;;;;;18.80;14.93;;;16.50;96.50;;;;;;4996122;28;20037;-75
2023/05/03 05:26:43;;;;;;;18.63;14.60;;;16.50;96.60;;;;;;4996089;28;20085;-74
2023/05/03 05:29:09;;;;;;;18.73;13.73;;;16.70;96.50;;;;;;4996406;28;20051;-74
2023/05/03 05:31:35;;;;;;;18.60;14.00;;;16.90;96.30;;;;;;4995982;28;20539;-75
2023/05/03 05:34:02;;;;;;;19.25;13.68;;;17.00;96.10;;;;;;4995862;28;20134;-75
2023/05/03 05:36:29;;;;;;;17.67;12.98;;;17.30;95.90;;;;;;4996001;28;20038;-74
2023/05/03 05:38:54;;;;;;;16.83;12.15;;;17.60;95.60;;;;;;5010652;28;20052;-73
2023/05/03 05:41:20;;;;;;;13.80;11.50;;;17.90;95.40;;;;;;5014976;28;20026;-76
2023/05/03 05:43:46;;;;;;;14.93;11.15;;;18.20;94.90;;;;;;5015100;28;20030;-75
2023/05/03 05:46:11;;;;;;;13.75;11.02;;;18.60;94.30;;;;;;5015360;28;20491;-75
2023/05/03 05:48:38;;;;;;;15.88;10.52;;;18.80;93.70;;;;;;4997850;28;20345;-75
2023/05/03 05:51:04;;;;;;;12.07;10.25;;;19.00;93.40;;;;;;4985204;28;20046;-77
2023/05/03 05:53:29;;;;;;;13.23;10.02;;;19.30;92.90;;;;;;4992612;28;20062;-76
2023/05/03 05:55:55;;;;;;;14.00;8.77;;;19.60;92.60;;;;;;5000176;28;20048;-72
2023/05/03 05:58:21;;;;;;;12.93;8.38;;;20.00;91.90;;;;;;4995895;28;20034;-76
2023/05/03 06:00:50;;;;;;;11.70;7.95;;;20.40;91.30;;;;;;5004372;28;20607;-75
2023/05/03 06:03:16;;;;;;;11.13;7.43;;;20.60;90.90;;;;;;5011969;28;20061;-73
2023/05/03 06:05:42;;;;;;;13.77;7.63;;;21.00;90.30;;;;;;5014065;28;20038;-74
2023/05/03 06:08:08;;;;;;;11.88;6.65;;;21.00;89.10;;;;;;4996311;28;20108;-77
2023/05/03 06:10:33;;;;;;;10.68;7.47;;;21.00;88.90;;;;;;4999535;28;20062;-75
2023/05/03 06:12:59;;;;;;;9.13;6.72;;;21.10;88.60;;;;;;4990413;28;20038;-76
2023/05/03 06:15:25;;;;;;;8.52;6.03;;;21.10;87.90;;;;;;4995467;28;20488;-77
2023/05/03 06:17:51;;;;;;;12.85;6.97;;;21.10;87.00;;;;;;4995531;28;20031;-77
2023/05/03 06:20:17;;;;;;;11.77;6.60;;;21.00;86.90;;;;;;4989921;28;20149;-75
2023/05/03 06:22:43;;;;;;;8.88;6.00;;;21.10;87.00;;;;;;4991416;28;20567;-74
2023/05/03 06:25:13;;;;;;;9.80;5.68;;;21.20;86.80;;;;;;4993782;28;20116;-76
2023/05/03 06:27:38;;;;;;;8.27;5.93;;;21.10;86.30;;;;;;4994955;28;20081;-75
2023/05/03 06:30:05;;;;;;;8.68;5.72;;;21.10;85.70;;;;;;4992090;28;20515;-75
2023/05/03 06:32:30;;;;;;;10.05;5.00;;;21.00;86.00;;;;;;4993643;28;20030;-76
2023/05/03 06:34:58;;;;;;;8.65;4.90;;;21.00;85.50;;;;;;4994248;28;20041;-78
2023/05/03 06:37:25;;;;;;;13.82;4.65;;;21.00;85.10;;;;;;4994756;28;20030;-74
2023/05/03 06:39:50;;;;;;;8.05;4.00;;;21.10;84.30;;;;;;4993305;28;20030;-74
2023/05/03 06:42:16;;;;;;;7.88;4.10;;;21.10;84.20;;;;;;4994876;28;20039;-75
2023/05/03 06:44:42;;;;;;;8.10;4.55;;;21.20;84.00;;;;;;4994522;28;20491;-75
2023/05/03 06:47:08;;;;;;;7.00;3.50;;;21.40;83.10;;;;;;4995522;28;20419;-75
2023/05/03 06:49:33;;;;;;;9.68;3.53;;;21.30;82.60;;;;;;5013867;28;20137;-76
2023/05/03 06:51:59;;;;;;;7.53;3.55;;;21.30;82.10;;;;;;5014300;28;20052;-75
2023/05/03 06:54:25;;;;;;;6.07;3.15;;;21.10;81.90;;;;;;5013583;28;20101;-76
2023/05/03 06:56:50;;;;;;;9.15;3.42;;;21.00;81.90;;;;;;5013150;28;20457;-74
2023/05/03 06:59:16;;;;;;;13.00;3.17;;;20.90;81.90;;;;;;5008411;28;20203;-75
2023/05/03 07:01:42;;;;;;;14.32;3.15;;;20.90;81.70;;;;;;5013719;28;20092;-76
2023/05/03 07:04:08;;;;;;;10.10;3.55;;;20.90;81.10;;;;;;5014075;28;20042;-75
2023/05/03 07:06:33;;;;;;;18.05;4.30;;;20.90;80.80;;;;;;5013540;28;20033;-75
2023/05/03 07:08:59;;;;;;;10.02;3.03;;;20.90;80.50;;;;;;5013595;28;20097;-75
2023/05/03 07:11:25;;;;;;;8.38;2.80;;;20.80;80.90;;;;;;5013801;28;20080;-74
2023/05/03 07:13:51;;;;;;;11.65;2.80;;;20.80;80.10;;;;;;5013397;28;20041;-74
2023/05/03 07:16:18;;;;;;;14.73;3.17;;;20.90;79.90;;;;;;4996248;28;20114;-76
2023/05/03 07:18:45;;;;;;;8.63;2.65;;;21.00;79.80;;;;;;5012852;28;20116;-74
2023/05/03 07:21:12;;;;;;;7.35;2.80;;;21.00;78.70;;;;;;5014019;28;20033;-75
2023/05/03 07:23:38;;;;;;;15.02;3.45;;;21.20;78.80;;;;;;5013668;28;20403;-75
2023/05/03 07:26:03;;;;;;;11.57;2.95;;;21.30;78.60;;;;;;5013660;28;20033;-74
2023/05/03 07:28:29;;;;;;;10.90;2.70;;;21.40;78.50;;;;;;5014152;28;20448;-76
2023/05/03 07:30:55;;;;;;;11.52;2.88;;;21.60;77.90;;;;;;5013918;28;20050;-74
2023/05/03 07:33:21;;;;;;;17.20;3.50;;;21.80;77.40;;;;;;4996599;28;20087;-75
2023/05/03 07:35:47;;;;;;;18.13;3.60;;;21.90;76.70;;;;;;5013385;28;20037;-74
2023/05/03 07:38:12;;;;;;;30.10;5.60;;;22.00;76.30;;;;;;5013284;28;20034;-74
2023/05/03 07:40:38;;;;;;;12.27;3.88;;;22.10;76.10;;;;;;5013544;28;20033;-75
2023/05/03 07:43:04;;;;;;;10.20;3.38;;;22.20;75.80;;;;;;4995898;28;20065;-76
2023/05/03 07:45:30;;;;;;;11.10;4.15;;;22.30;75.30;;;;;;5012213;28;20037;-75
2023/05/03 07:47:56;;;;;;;15.60;4.85;;;22.30;75.60;;;;;;5013632;28;20034;-74
2023/05/03 07:50:22;;;;;;;8.88;3.90;;;22.40;75.70;;;;;;5013427;28;20042;-76
2023/05/03 07:52:50;;;;;;;10.68;3.92;;;22.50;75.40;;;;;;5013285;28;20125;-74
2023/05/03 07:55:17;;;;;;;8.43;3.15;;;22.30;75.40;;;;;;5013058;28;20116;-75
2023/05/03 07:57:44;;;;;;;8.27;2.85;;;22.20;75.40;;;;;;5012959;28;20132;-75
2023/05/03 08:00:11;;;;;;;13.25;3.22;;;22.10;75.40;;;;;;4995228;28;20368;-74
2023/05/03 08:02:37;;;;;;;9.48;2.97;;;22.00;75.30;;;;;;5013406;28;20110;-75
2023/05/03 08:05:06;;;;;;;10.23;2.97;;;21.90;74.80;;;;;;5013275;28;20061;-75
2023/05/03 08:07:32;;;;;;;7.50;2.42;;;21.90;75.00;;;;;;5012845;28;20072;-74
2023/05/03 08:09:58;;;;;;;9.80;3.17;;;21.90;74.90;;;;;;5012785;28;20042;-76
2023/05/03 08:12:27;;;;;;;5.68;2.55;;;22.00;74.00;;;;;;5013011;28;20036;-75
2023/05/03 08:14:54;;;;;;;14.70;2.60;;;22.00;74.00;;;;;;5012937;28;20388;-75
2023/05/03 08:17:21;;;;;;;5.30;2.35;;;22.20;73.90;;;;;;5013076;28;20518;-76
2023/05/03 08:19:47;;;;;;;8.50;2.30;;;22.30;73.60;;;;;;5012767;28;20538;-76
2023/05/03 08:22:12;;;;;;;8.55;3.08;;;22.40;73.50;;;;;;5012757;28;20038;-74
2023/05/03 08:24:39;;;;;;;8.77;2.83;;;22.40;73.50;;;;;;5012962;28;20038;-75
2023/05/03 08:27:06;;;;;;;11.27;2.72;;;22.50;73.40;;;;;;4995103;28;20400;-76
2023/05/03 08:29:32;;;;;;;9.73;2.75;;;22.60;73.00;;;;;;4994921;28;20042;-75
2023/05/03 08:31:58;;;;;;;5.32;2.40;;;22.70;72.80;;;;;;5012856;28;20522;-76
2023/05/03 08:34:24;;;;;;;5.95;2.40;;;22.70;72.30;;;;;;5012641;28;20026;-75
2023/05/03 08:36:50;;;;;;;4.85;2.10;;;22.90;72.40;;;;;;5014208;28;20038;-74
2023/05/03 08:39:17;;;;;;;5.65;3.00;;;22.80;71.70;;;;;;5012796;28;20092;-76
2023/05/03 08:41:43;;;;;;;8.25;2.85;;;22.90;72.10;;;;;;5012364;28;20042;-74
2023/05/03 08:44:11;;;;;;;7.72;2.90;;;23.10;72.10;;;;;;5012532;28;20077;-75
2023/05/03 08:46:37;;;;;;;8.95;2.67;;;23.20;71.60;;;;;;5012368;28;20046;-75
2023/05/03 08:49:05;;;;;;;7.70;2.70;;;23.40;71.40;;;;;;5012283;28;20034;-75
2023/05/03 08:51:33;;;;;;;6.15;2.88;;;23.40;70.70;;;;;;4994651;28;20068;-75
2023/05/03 08:53:59;;;;;;;8.50;2.75;;;23.30;70.60;;;;;;4994641;28;20030;-76
2023/05/03 08:56:33;;;;;;;8.48;3.00;;;23.40;70.80;;;;;;4995922;28;20391;-75
2023/05/03 08:59:06;;;;;;;11.13;2.97;;;23.40;70.60;;;;;;5016427;28;20030;-75
2023/05/03 09:01:33;;;;;;;8.85;3.10;;;23.40;70.40;;;;;;5016555;28;20069;-75
2023/05/03 09:03:58;;;;;;;11.13;3.20;;;23.30;69.80;;;;;;5016896;28;20026;-74
2023/05/03 09:06:27;;;;;;;10.10;2.80;;;23.30;69.70;;;;;;5016851;28;20071;-75
2023/05/03 09:08:53;;;;;;;12.10;4.03;;;23.20;69.70;;;;;;5016342;28;20030;-75
2023/05/03 09:11:30;;;;;;;8.10;3.00;;;23.20;69.60;;;;;;4999256;28;20046;-76
2023/05/03 09:14:12;;;;;;;10.02;3.10;;;23.10;69.40;;;;;;5016466;28;20056;-75
2023/05/03 09:16:39;;;;;;;6.55;3.20;;;23.00;69.80;;;;;;5016493;28;20034;-74
2023/05/03 09:19:08;;;;;;;8.85;3.13;;;23.00;69.80;;;;;;5016482;28;20030;-75
2023/05/03 09:21:47;;;;;;;8.23;3.13;;;23.00;69.50;;;;;;5016359;28;20037;-75
2023/05/03 09:24:15;;;;;;;6.75;3.10;;;23.00;69.50;;;;;;5016303;28;20033;-75
2023/05/03 09:26:41;;;;;;;9.02;3.17;;;22.90;69.80;;;;;;5016101;28;20042;-76
2023/05/03 09:29:07;;;;;;;9.68;3.35;;;22.90;69.70;;;;;;5016771;28;20034;-76
2023/05/03 09:31:34;;;;;;;12.57;3.35;;;22.90;69.90;;;;;;5016822;28;20037;-74
2023/05/03 09:34:00;;;;;;;8.88;3.63;;;23.00;70.10;;;;;;5016381;28;20030;-76
2023/05/03 09:36:26;;;;;;;8.40;3.00;;;23.20;69.80;;;;;;5016663;28;20511;-75
2023/05/03 09:38:53;;;;;;;7.70;3.20;;;23.20;68.90;;;;;;4998496;28;20072;-76
2023/05/03 09:41:27;;;;;;;6.93;3.53;;;23.20;68.80;;;;;;4998427;28;20038;-76
2023/05/03 09:43:54;;;;;;;;;;;23.10;68.70;;;;;;5016197;28;20336;-76
2023/05/03 09:46:22;;;;;;;9.18;3.42;;;23.10;68.50;;;;;;4998154;28;20291;-76
2023/05/03 09:48:49;;;;;;;4.85;2.72;;;23.20;69.10;;;;;;5015733;28;20029;-77
2023/05/03 09:51:15;;;;;;;7.50;3.55;;;23.20;68.80;;;;;;4997832;28;20499;-74
2023/05/03 09:53:41;;;;;;;11.38;3.13;;;23.20;68.40;;;;;;4997955;28;20034;-75
2023/05/03 09:56:13;;;;;;;6.47;3.17;;;23.20;68.20;;;;;;5015683;28;20546;-75
2023/05/03 09:58:40;;;;;;;5.65;2.63;;;23.30;68.00;;;;;;5015426;28;20507;-75
2023/05/03 10:01:07;;;;;;;6.38;2.75;;;23.40;67.50;;;;;;5015418;28;20041;-75
2023/05/03 10:03:50;;;;;;;10.82;3.15;;;23.40;67.40;;;;;;5015438;28;20065;-75
2023/05/03 10:06:29;;;;;;;8.48;3.00;;;23.50;66.90;;;;;;5015413;28;20030;-75
2023/05/03 10:09:05;;;;;;;6.63;3.17;;;23.70;66.90;;;;;;5014453;28;20069;-75
2023/05/03 10:11:33;;;;;;;8.15;2.85;;;23.80;67.00;;;;;;5015241;28;20038;-76
2023/05/03 10:13:59;;;;;;;6.05;2.60;;;24.00;67.80;;;;;;5015167;28;20025;-77
2023/05/03 10:16:35;;;;;;;9.70;2.92;;;24.20;66.80;;;;;;5015106;28;20056;-75
2023/05/03 10:19:20;;;;;;;6.03;2.92;;;24.30;65.80;;;;;;5015220;28;20045;-74
2023/05/03 10:21:57;;;;;;;11.25;2.75;;;24.40;65.40;;;;;;5014912;28;20053;-75
2023/05/03 10:24:23;;;;;;;5.13;2.90;;;24.40;65.30;;;;;;5015049;28;20041;-76
2023/05/03 10:26:50;;;;;;;5.38;2.50;;;24.50;64.80;;;;;;5014851;28;20361;-75
2023/05/03 10:29:33;;;;;;;31.58;5.05;;;24.50;64.50;;;;;;5014819;28;20128;-75
2023/05/03 10:32:31;;;;;;;6.70;2.70;;;24.60;63.20;;;;;;4997424;28;20038;-74
2023/05/03 10:35:09;;;;;;;22.25;3.10;;;24.60;63.20;;;;;;5015058;28;20430;-75
2023/05/03 10:37:36;;;;;;;11.95;2.90;;;24.60;63.80;;;;;;5015051;28;20025;-74
2023/05/03 10:40:21;;;;;;;9.48;2.60;;;24.60;63.60;;;;;;5014773;28;20041;-74
2023/05/03 10:43:05;;;;;;;7.65;2.40;;;24.60;63.40;;;;;;4997373;28;20026;-74
2023/05/03 10:45:32;;;;;;;8.63;2.65;;;24.60;62.40;;;;;;5014997;28;20061;-75
2023/05/03 10:48:19;;;;;;;8.90;2.45;;;24.70;63.40;;;;;;5014740;28;20057;-76
2023/05/03 10:50:45;;;;;;;6.85;1.92;;;24.90;63.20;;;;;;5014869;28;20042;-76
2023/05/03 10:53:34;;;;;;;6.43;2.13;;;24.90;62.00;;;;;;5014482;28;20041;-76
2023/05/03 10:56:06;;;;;;;6.40;1.70;;;24.80;60.30;;;;;;5014397;28;20034;-75
2023/05/03 10:58:41;;;;;;;4.20;1.80;;;24.80;60.30;;;;;;5014745;28;20077;-75
2023/05/03 11:01:09;;;;;;;5.80;1.70;;;24.70;60.00;;;;;;4996757;28;20030;-75
2023/05/03 11:04:06;;;;;;;5.60;1.73;;;24.60;59.70;;;;;;5014518;28;20502;-75
2023/05/03 11:06:33;;;;;;;3.30;1.70;;;24.60;59.00;;;;;;4996978;28;20037;-76
2023/05/03 11:09:00;;;;;;;3.80;1.40;;;24.70;59.50;;;;;;5014211;28;20041;-75
2023/05/03 11:11:26;;;;;;;3.97;1.67;;;24.80;59.10;;;;;;5014488;28;20080;-75
2023/05/03 11:13:52;;;;;;;6.40;1.60;;;24.90;58.30;;;;;;5014460;28;20034;-73
2023/05/03 11:16:19;;;;;;;5.13;2.13;;;25.20;58.30;;;;;;5014143;28;20037;-75
2023/05/03 11:18:47;;;;;;;5.22;1.85;;;25.50;58.10;;;;;;5013968;28;20380;-76
2023/05/03 11:21:13;;;;;;;3.10;1.70;;;25.70;56.30;;;;;;5014025;28;20046;-75
2023/05/03 11:23:40;;;;;;;13.52;1.85;;;25.70;55.80;;;;;;5013963;28;20033;-75
2023/05/03 11:26:07;;;;;;;3.90;1.50;;;25.60;55.70;;;;;;5014319;28;20029;-76
2023/05/03 11:28:32;;;;;;;4.97;1.50;;;25.60;55.20;;;;;;5013823;28;20038;-75
2023/05/03 11:31:00;;;;;;;5.32;1.70;;;25.60;54.60;;;;;;5013662;28;20133;-76
2023/05/03 11:33:29;;;;;;;10.10;2.10;;;25.40;53.60;;;;;;5014204;28;20113;-75
2023/05/03 11:35:55;;;;;;;8.10;2.50;;;25.40;54.50;;;;;;5013704;28;20038;-76
2023/05/03 11:38:21;;;;;;;6.97;2.22;;;25.30;55.60;;;;;;5014049;28;20033;-75
2023/05/03 11:40:47;;;;;;;6.18;2.08;;;25.30;56.00;;;;;;5014167;28;20038;-76
2023/05/03 11:43:13;;;;;;;4.40;1.80;;;25.30;56.30;;;;;;5013848;28;20450;-75
2023/05/03 11:45:39;;;;;;;4.93;1.90;;;25.30;56.30;;;;;;4995929;28;20072;-74
2023/05/03 11:48:05;;;;;;;4.22;2.05;;;25.40;56.20;;;;;;5013690;28;20065;-76
2023/05/03 11:51:09;;;;;;;8.48;1.80;;;25.50;56.30;;;;;;5014160;28;20049;-75
2023/05/03 11:53:38;;;;;;;3.22;2.08;;;25.60;55.00;;;;;;4934132;29;20071;-76
2023/05/03 11:56:07;;;;;;;5.60;2.25;;;25.70;55.60;;;;;;4985997;28;20032;-75
2023/05/03 11:58:33;;;;;;;4.68;1.83;;;25.80;55.50;;;;;;5013965;28;20502;-75
2023/05/03 12:00:59;;;;;;;4.70;1.70;;;25.90;54.70;;;;;;5013916;28;20137;-75
2023/05/03 12:03:27;;;;;;;4.68;1.77;;;25.90;54.10;;;;;;5013758;28;20070;-75
2023/05/03 12:05:54;;;;;;;3.53;1.70;;;26.10;54.20;;;;;;5014141;28;20045;-75
2023/05/03 12:08:20;;;;;;;3.72;1.85;;;26.30;54.20;;;;;;5013551;28;20110;-75
2023/05/03 12:10:48;;;;;;;3.00;1.75;;;26.30;53.80;;;;;;5013592;28;20392;-74
2023/05/03 12:13:13;;;;;;;2.80;1.90;;;26.30;54.00;;;;;;5013784;28;20045;-76
2023/05/03 12:15:42;;;;;;;7.00;2.20;;;26.30;54.00;;;;;;5013243;28;20030;-75
2023/05/03 12:18:09;;;;;;;6.45;2.50;;;26.20;54.40;;;;;;5012981;28;20057;-75
2023/05/03 12:20:37;;;;;;;4.22;2.08;;;26.20;55.20;;;;;;5013361;28;20371;-76
2023/05/03 12:23:08;;;;;;;5.20;2.15;;;26.10;55.50;;;;;;5012894;28;20026;-75
2023/05/03 12:25:35;;;;;;;6.13;2.03;;;26.00;56.40;;;;;;5013091;28;20088;-75
2023/05/03 12:28:05;;;;;;;6.78;2.55;;;25.70;56.80;;;;;;5013096;28;20048;-74
2023/05/03 12:30:32;;;;;;;5.63;1.85;;;25.70;56.80;;;;;;5012598;28;20057;-76
2023/05/03 12:32:58;;;;;;;5.10;1.98;;;25.70;56.50;;;;;;5012979;28;20044;-75
2023/05/03 12:35:25;;;;;;;4.55;1.90;;;25.70;56.60;;;;;;5013265;28;20026;-75
2023/05/03 12:37:51;;;;;;;5.70;1.85;;;25.70;55.90;;;;;;5012821;28;20049;-76
2023/05/03 12:40:26;;;;;;;3.28;1.75;;;25.70;55.90;;;;;;5012501;28;20037;-75